Time;durP1;ratioP1;P1;durP2;ratioP2;P2;SDS_P1;SDS_P2;PMS_P1;PMS_P2;Temp;Humidity;BMP_temperature;BMP_pressure;BME280_temperature;BME280_humidity;BME280_pressure;Samples;Min_cycle;Max_cycle;Signal;HPM_P1;HPM_P2
2022/07/23 06:01:17;;;;;;;;;28.25;22.75;;;;;22.52;62.68;101709.88;2639039;23;45920;-76
2022/07/23 06:02:28;;;;;;;;;24.75;19.50;;;;;22.50;62.86;101706.44;2362920;29;45448;-75
2022/07/23 06:03:38;;;;;;;;;25.75;20.75;;;;;22.52;62.87;101715.22;2365051;29;45425;-76
2022/07/23 06:04:49;;;;;;;;;25.75;19.50;;;;;22.52;63.65;101707.19;2355600;29;44707;-76
2022/07/23 06:05:59;;;;;;;;;24.25;20.00;;;;;22.56;63.14;101713.22;2358856;29;45377;-74
2022/07/23 06:07:09;;;;;;;;;16.75;16.75;;;;;22.56;62.85;101707.84;2364774;29;44717;-74
2022/07/23 06:08:20;;;;;;;;;27.50;20.25;;;;;22.57;62.87;101712.25;2364803;29;45315;-74
2022/07/23 06:09:30;;;;;;;;;27.75;24.00;;;;;22.57;63.06;101715.78;2364528;29;44577;-74
2022/07/23 06:10:41;;;;;;;;;24.50;21.50;;;;;22.55;62.87;101708.81;2364766;29;45444;-75
2022/07/23 06:11:51;;;;;;;;;24.25;21.50;;;;;22.53;63.44;101716.09;2355634;29;45312;-75
2022/07/23 06:13:02;;;;;;;;;23.75;20.75;;;;;22.50;62.94;101711.81;2358263;29;46539;-74
2022/07/23 06:14:12;;;;;;;;;25.00;24.50;;;;;22.49;63.63;101710.94;2365899;29;44765;-74
2022/07/23 06:15:23;;;;;;;;;24.25;21.25;;;;;22.49;63.51;101716.31;2366647;28;45429;-74
2022/07/23 06:16:33;;;;;;;;;28.00;23.75;;;;;22.50;63.42;101711.81;2356669;29;45152;-74
2022/07/23 06:17:43;;;;;;;;;30.25;23.25;;;;;22.50;63.47;101714.50;2358302;29;45204;-74
2022/07/23 06:18:54;;;;;;;;;30.50;26.00;;;;;22.49;63.55;101720.81;2366643;28;45317;-75
2022/07/23 06:20:06;;;;;;;;;31.50;27.25;;;;;22.51;63.25;101720.72;2366330;29;45519;-74
2022/07/23 06:21:16;;;;;;;;;29.00;25.75;;;;;22.52;63.54;101719.75;2367084;29;45161;-74
2022/07/23 06:22:27;;;;;;;;;28.00;25.25;;;;;22.54;63.96;101721.38;2366806;29;45407;-75
2022/07/23 06:23:37;;;;;;;;;36.25;29.00;;;;;22.57;63.32;101722.97;2366674;29;45165;-75
2022/07/23 06:24:49;;;;;;;;;31.25;30.00;;;;;22.59;63.29;101726.41;2366515;29;45291;-74
2022/07/23 06:25:59;;;;;;;;;23.50;22.50;;;;;22.62;63.73;101722.66;2366728;29;45361;-75
2022/07/23 06:27:09;;;;;;;;;37.25;31.25;;;;;22.63;63.27;101722.53;2366673;29;46210;-75
2022/07/23 06:28:20;;;;;;;;;36.00;30.75;;;;;22.66;63.83;101718.78;2367025;29;45301;-75
2022/07/23 06:29:30;;;;;;;;;31.25;27.75;;;;;22.67;63.39;101718.69;2366890;29;46354;-75
2022/07/23 06:30:40;;;;;;;;;33.00;28.50;;;;;22.69;63.66;101732.00;2366925;29;44737;-75
2022/07/23 06:31:51;;;;;;;;;40.50;31.00;;;;;22.68;63.60;101728.44;2366420;29;45648;-74
2022/07/23 06:33:01;;;;;;;;;34.75;31.00;;;;;22.68;63.79;101736.47;2366953;29;45163;-75
2022/07/23 06:34:12;;;;;;;;;34.75;26.75;;;;;22.66;63.27;101730.38;2366533;29;45179;-74
2022/07/23 06:35:22;;;;;;;;;33.50;28.00;;;;;22.66;63.54;101733.06;2366667;29;46613;-74
2022/07/23 06:36:32;;;;;;;;;37.25;24.50;;;;;22.67;63.65;101723.16;2366700;28;46771;-74
2022/07/23 06:37:43;;;;;;;;;38.75;31.00;;;;;22.66;64.17;101730.38;2366997;29;44523;-74
2022/07/23 06:38:53;;;;;;;;;33.75;30.75;;;;;22.66;63.96;101730.38;2366783;29;46740;-74
2022/07/23 06:40:04;;;;;;;;;37.00;32.00;;;;;22.67;63.55;101736.56;2366082;29;45408;-74
2022/07/23 06:41:15;;;;;;;;;37.75;30.00;;;;;22.68;64.23;101739.16;2366270;29;45261;-74
2022/07/23 06:42:25;;;;;;;;;36.00;28.25;;;;;22.72;64.02;101736.31;2366994;29;45322;-74
2022/07/23 06:43:35;;;;;;;;;35.75;29.75;;;;;22.73;63.92;101738.88;2374904;28;47060;-74
2022/07/23 06:44:46;;;;;;;;;39.75;30.00;;;;;22.75;63.65;101739.63;2369528;28;45402;-75
2022/07/23 06:45:56;;;;;;;;;42.75;31.50;;;;;22.77;64.19;101745.72;2364955;29;45597;-75
2022/07/23 06:47:06;;;;;;;;;37.00;33.50;;;;;22.79;63.15;101749.16;2371759;28;45319;-75
2022/07/23 06:48:17;;;;;;;;;45.25;34.75;;;;;22.76;63.90;101746.69;2370361;28;46285;-75
2022/07/23 06:49:27;;;;;;;;;41.25;33.75;;;;;22.73;63.49;101736.19;2356855;29;44742;-75
2022/07/23 06:50:37;;;;;;;;;39.50;32.75;;;;;22.74;64.30;101747.78;2349323;29;47535;-75
2022/07/23 06:51:48;;;;;;;;;34.25;25.00;;;;;22.70;63.62;101745.28;2358721;29;45289;-75
2022/07/23 06:52:58;;;;;;;;;40.50;31.00;;;;;22.69;64.10;101738.22;2365621;29;46299;-75
2022/07/23 06:54:08;;;;;;;;;38.50;32.75;;;;;22.69;64.05;101740.88;2365423;29;44673;-75
2022/07/23 06:55:19;;;;;;;;;42.00;33.50;;;;;22.70;63.87;101742.63;2365002;29;46437;-75
2022/07/23 06:56:29;;;;;;;;;40.00;32.75;;;;;22.71;64.34;101743.47;2365630;29;45251;-75
2022/07/23 06:57:40;;;;;;;;;37.50;32.50;;;;;22.74;63.75;101745.09;2365486;28;46108;-75
2022/07/23 06:58:50;;;;;;;;;42.00;33.00;;;;;22.77;63.81;101744.84;2375905;28;45224;-75
2022/07/23 07:00:00;;;;;;;;;43.50;35.75;;;;;22.78;64.16;101751.94;2359311;29;47091;-75
2022/07/23 07:01:11;;;;;;;;;27.75;24.50;;;;;22.79;64.01;101748.31;2359717;29;45774;-75
2022/07/23 07:02:21;;;;;;;;;22.50;22.00;;;;;22.83;63.59;101752.47;2366608;28;45587;-75
2022/07/23 07:03:31;;;;;;;;;38.25;32.75;;;;;22.85;64.11;101749.69;2373765;28;45233;-75
2022/07/23 07:04:42;;;;;;;;;34.75;29.25;;;;;22.87;63.85;101745.94;2371262;28;45624;-75
2022/07/23 07:05:53;;;;;;;;;32.25;30.50;;;;;22.89;63.81;101754.72;2367453;28;45701;-75
2022/07/23 07:07:03;;;;;;;;;36.50;33.25;;;;;22.92;63.37;101749.16;2374978;28;47214;-74
2022/07/23 07:08:13;;;;;;;;;45.75;35.25;;;;;22.91;63.37;101750.13;2370574;28;45345;-74
2022/07/23 07:09:24;;;;;;;;;40.50;33.50;;;;;22.93;63.58;101755.38;2366213;29;45437;-74
2022/07/23 07:10:34;;;;;;;;;44.75;36.50;;;;;22.90;63.63;101747.53;2356767;29;45210;-75
2022/07/23 07:11:44;;;;;;;;;44.50;34.75;;;;;22.91;63.86;101760.84;2359327;29;46584;-75
2022/07/23 07:12:55;;;;;;;;;39.00;32.75;;;;;22.92;63.98;101761.69;2366246;29;44759;-75
2022/07/23 07:14:06;;;;;;;;;38.25;31.50;;;;;22.90;63.84;101759.13;2366489;29;45197;-75
2022/07/23 07:15:16;;;;;;;;;39.25;33.50;;;;;22.90;63.85;101756.44;2366439;28;45351;-75
2022/07/23 07:16:27;;;;;;;;;47.00;36.50;;;;;22.91;64.00;101758.19;2370106;28;45446;-75
2022/07/23 07:17:37;;;;;;;;;44.25;35.25;;;;;22.93;64.04;101764.28;2367436;28;44630;-75
2022/07/23 07:18:48;;;;;;;;;44.75;37.25;;;;;22.93;63.83;101755.38;2375679;28;45629;-75
2022/07/23 07:19:58;;;;;;;;;41.25;33.50;;;;;22.92;63.64;101759.88;2367328;28;45415;-74
2022/07/23 07:21:09;;;;;;;;;34.25;28.50;;;;;22.92;63.89;101762.56;2366448;29;46194;-87
2022/07/23 07:22:19;;;;;;;;;42.00;33.75;;;;;22.95;63.63;101763.31;2356370;29;44757;-87
2022/07/23 07:23:29;;;;;;;;;36.25;32.25;;;;;22.97;64.24;101772.09;2359254;29;45435;-88
2022/07/23 07:24:40;;;;;;;;;40.50;33.75;;;;;22.97;63.84;101767.59;2366180;29;45411;-86
2022/07/23 07:25:50;;;;;;;;;47.50;37.75;;;;;22.97;63.99;101767.59;2365566;28;45534;-84
2022/07/23 07:27:00;;;;;;;;;38.50;33.50;;;;;22.98;63.85;101769.31;2366295;29;45224;-87
2022/07/23 07:28:11;;;;;;;;;40.50;34.50;;;;;22.99;63.59;101767.50;2361796;29;47284;-87
2022/07/23 07:29:21;;;;;;;;;35.25;31.50;;;;;23.03;62.98;101769.00;2365174;29;45476;-87
2022/07/23 07:30:31;;;;;;;;;43.00;33.50;;;;;23.08;63.93;101774.91;2366231;28;46285;-87
2022/07/23 07:31:42;;;;;;;;;40.00;31.50;;;;;23.12;63.73;101776.38;2365329;29;44627;-87
2022/07/23 07:32:52;;;;;;;;;44.75;35.75;;;;;23.18;63.51;101782.28;2365741;29;45260;-86
2022/07/23 07:34:03;;;;;;;;;33.75;31.25;;;;;23.23;63.24;101783.69;2366457;29;45243;-86
2022/07/23 07:35:13;;;;;;;;;34.00;30.50;;;;;23.30;63.09;101783.22;2366242;29;46118;-86
2022/07/23 07:36:24;;;;;;;;;43.25;33.50;;;;;23.37;63.01;101784.50;2366398;28;45435;-87
2022/07/23 07:37:35;;;;;;;;;50.25;40.25;;;;;23.39;62.76;101782.56;2366165;28;45545;-87
2022/07/23 07:38:45;;;;;;;;;41.75;33.75;;;;;23.41;62.63;101779.78;2366631;29;44537;-87
2022/07/23 07:39:55;;;;;;;;;43.75;35.50;;;;;23.42;62.24;101781.50;2365807;29;45483;-87
2022/07/23 07:41:07;;;;;;;;;39.00;34.75;;;;;23.42;62.87;101785.03;2366363;29;45440;-88
2022/07/23 07:42:17;;;;;;;;;48.25;37.00;;;;;23.40;62.89;101776.25;2365344;29;47242;-87
2022/07/23 07:43:28;;;;;;;;;39.00;30.75;;;;;23.42;62.84;101779.66;2365990;29;44734;-88
2022/07/23 07:44:38;;;;;;;;;46.75;36.00;;;;;23.43;62.41;101778.72;2366110;29;45278;-88
2022/07/23 07:45:48;;;;;;;;;42.00;33.75;;;;;23.48;62.55;101770.34;2365815;28;44813;-88
2022/07/23 07:46:59;;;;;;;;;50.00;40.75;;;;;23.51;62.87;101780.84;2374798;28;46383;-87
2022/07/23 07:48:09;;;;;;;;;47.50;36.50;;;;;23.55;62.58;101781.50;2368841;28;45627;-88
2022/07/23 07:49:20;;;;;;;;;45.75;36.25;;;;;23.52;62.14;101779.91;2355959;29;48021;-88
2022/07/23 07:50:30;;;;;;;;;44.25;37.00;;;;;23.54;62.39;101785.13;2349421;29;45436;-87
2022/07/23 07:51:40;;;;;;;;;41.75;34.00;;;;;23.54;62.38;101782.47;2358703;28;45413;-87
2022/07/23 07:52:51;;;;;;;;;45.75;37.25;;;;;23.53;62.35;101783.44;2356502;29;45193;-87
2022/07/23 07:54:01;;;;;;;;;48.25;37.25;;;;;23.51;62.31;101780.03;2358967;29;45411;-88
2022/07/23 07:55:12;;;;;;;;;42.25;34.00;;;;;23.46;62.31;101782.97;2366319;29;44770;-87
2022/07/23 07:56:22;;;;;;;;;47.75;37.75;;;;;23.44;62.29;101790.28;2365462;29;47065;-87
2022/07/23 07:57:33;;;;;;;;;41.00;34.75;;;;;23.41;62.38;101783.31;2365300;28;45272;-87
2022/07/23 07:58:43;;;;;;;;;48.00;37.25;;;;;23.40;62.06;101794.16;2366450;28;48718;-87
2022/07/23 07:59:53;;;;;;;;;41.00;34.25;;;;;23.39;62.31;101785.25;2365727;29;45237;-87
2022/07/23 08:01:04;;;;;;;;;49.50;37.00;;;;;23.40;62.07;101794.16;2365810;29;45423;-88
2022/07/23 08:02:14;;;;;;;;;42.75;35.75;;;;;23.39;62.43;101793.28;2356154;29;45253;-87
2022/07/23 08:03:25;;;;;;;;;45.25;34.25;;;;;23.40;61.99;101791.47;2349530;29;47952;-88
2022/07/23 08:04:35;;;;;;;;;46.75;35.00;;;;;23.45;62.44;101797.38;2356761;29;45158;-88
2022/07/23 08:05:45;;;;;;;;;40.25;35.25;;;;;23.48;62.25;101791.78;2358777;29;45552;-87
2022/07/23 08:06:56;;;;;;;;;42.50;31.50;;;;;23.56;62.42;101800.16;2356236;29;45332;-87
2022/07/23 08:08:06;;;;;;;;;47.25;37.00;;;;;23.59;62.19;101799.94;2360436;28;46498;-89
2022/07/23 08:09:16;;;;;;;;;51.75;38.50;;;;;23.61;62.03;101794.47;2364376;29;45431;-87
2022/07/23 08:10:28;;;;;;;;;47.25;38.00;;;;;23.64;61.97;101796.06;2358872;29;45368;-88
2022/07/23 08:11:38;;;;;;;;;45.25;35.75;;;;;23.68;61.78;101794.91;2365346;29;45330;-87
2022/07/23 08:12:53;;;;;;;;;45.75;34.75;;;;;23.72;61.95;101793.69;2362641;29;46055;-88
2022/07/23 08:14:03;;;;;;;;;45.25;36.75;;;;;23.78;61.67;101798.59;2359203;29;45173;-88
2022/07/23 08:15:16;;;;;;;;;40.50;32.75;;;;;23.82;61.20;101792.06;2364526;29;48083;-85
2022/07/23 08:16:26;;;;;;;;;46.25;36.75;;;;;23.90;61.46;101802.19;2365345;28;45403;-87
2022/07/23 08:17:37;;;;;;;;;40.75;33.50;;;;;23.93;61.16;101796.63;2365914;29;46427;-87
2022/07/23 08:18:47;;;;;;;;;40.00;33.75;;;;;23.96;61.69;101795.53;2365737;29;45319;-86
2022/07/23 08:19:58;;;;;;;;;47.25;37.00;;;;;23.95;61.12;101801.88;2365861;29;45396;-87
2022/07/23 08:21:08;;;;;;;;;44.50;34.50;;;;;23.97;60.92;101794.56;2356132;29;45248;-86
2022/07/23 08:22:18;;;;;;;;;45.25;36.50;;;;;23.95;60.59;101796.53;2357782;28;45471;-87
2022/07/23 08:23:29;;;;;;;;;42.00;32.75;;;;;23.94;60.08;101798.34;2372586;28;44831;-86
2022/07/23 08:24:39;;;;;;;;;33.75;28.00;;;;;23.92;60.63;101799.44;2365036;29;46955;-86
2022/07/23 08:25:49;;;;;;;;;42.75;33.00;;;;;23.88;60.29;101796.09;2365324;29;45453;-86
2022/07/23 08:27:00;;;;;;;;;46.50;36.25;;;;;23.85;60.74;101799.03;2355837;29;45721;-85
2022/07/23 08:28:12;;;;;;;;;45.25;35.25;;;;;23.86;60.22;101803.41;2358906;29;45277;-86
2022/07/23 08:29:23;;;;;;;;;41.50;33.50;;;;;23.86;60.99;101807.91;2365149;29;47359;-86
2022/07/23 08:30:34;;;;;;;;;41.75;34.25;;;;;23.85;60.32;101799.03;2365486;28;45291;-86
2022/07/23 08:31:45;;;;;;;;;48.75;37.00;;;;;23.87;60.92;101801.59;2365741;29;46217;-86
2022/07/23 08:33:04;;;;;;;;;48.50;38.25;;;;;23.90;60.59;101801.38;2356111;29;44765;-86
2022/07/23 08:34:14;;;;;;;;;48.00;35.25;;;;;23.90;60.70;101807.56;2360119;28;45678;-86
2022/07/23 08:35:27;;;;;;;;;45.75;35.75;;;;;23.91;60.74;101814.66;2365081;28;45289;-86
2022/07/23 08:36:38;;;;;;;;;49.25;36.50;;;;;23.89;61.13;101813.94;2355804;29;48046;-85
2022/07/23 08:37:48;;;;;;;;;45.50;35.50;;;;;23.91;60.86;101813.81;2358529;29;45393;-86
2022/07/23 08:39:02;;;;;;;;;47.25;34.25;;;;;23.89;60.88;101819.28;2365006;29;47030;-86
2022/07/23 08:40:12;;;;;;;;;45.50;37.00;;;;;23.87;61.01;101817.69;2356220;29;45350;-86
2022/07/23 08:41:23;;;;;;;;;49.50;37.75;;;;;23.88;61.43;101817.56;2358873;29;46446;-86
2022/07/23 08:42:37;;;;;;;;;47.25;36.25;;;;;23.90;61.09;101820.16;2365987;28;44804;-87
2022/07/23 08:43:48;;;;;;;;;41.00;34.75;;;;;23.93;61.49;101818.09;2365840;29;45569;-87
2022/07/23 08:44:58;;;;;;;;;45.75;36.50;;;;;23.98;61.14;101816.91;2365731;29;45269;-86
2022/07/23 08:46:09;;;;;;;;;44.75;35.25;;;;;24.02;61.45;101815.72;2365361;29;46347;-87
2022/07/23 08:47:19;;;;;;;;;42.00;33.50;;;;;24.03;60.65;101823.63;2361660;28;45300;-88
2022/07/23 08:48:33;;;;;;;;;42.00;34.50;;;;;24.05;60.65;101820.88;2365661;28;46455;-87
2022/07/23 08:49:45;;;;;;;;;39.25;33.50;;;;;24.07;61.08;101824.28;2372870;28;44591;-89
2022/07/23 08:50:58;;;;;;;;;42.50;31.50;;;;;24.12;60.79;101823.94;2362150;29;47475;-86
2022/07/23 08:52:09;;;;;;;;;31.25;29.25;;;;;24.17;60.69;101827.16;2355950;29;45244;-87
2022/07/23 08:53:20;;;;;;;;;35.75;31.00;;;;;24.21;60.60;101825.94;2348780;29;48225;-85
2022/07/23 08:54:34;;;;;;;;;43.75;34.00;;;;;24.28;60.37;101826.34;2358549;29;44844;-86
2022/07/23 08:55:46;;;;;;;;;41.50;32.00;;;;;24.32;60.66;101821.63;2365661;29;45366;-86
2022/07/23 08:56:57;;;;;;;;;35.75;31.50;;;;;24.37;60.32;101827.50;2365887;29;44720;-86
2022/07/23 08:58:07;;;;;;;;;41.75;33.00;;;;;24.41;60.35;101826.31;2365597;29;46479;-86
2022/07/23 08:59:17;;;;;;;;;33.00;27.75;;;;;24.45;60.23;101829.59;2355558;29;45265;-86
2022/07/23 09:00:29;;;;;;;;;41.25;34.00;;;;;24.47;60.12;101827.69;2356663;29;45350;-86
2022/07/23 09:01:39;;;;;;;;;45.00;34.75;;;;;24.50;60.00;101830.09;2362126;28;45637;-89
2022/07/23 09:02:51;;;;;;;;;34.00;30.25;;;;;24.54;60.19;101828.06;2366635;28;46187;-86
2022/07/23 09:04:01;;;;;;;;;37.00;31.00;;;;;24.58;59.46;101834.91;2358315;29;45375;-86
2022/07/23 09:05:14;;;;;;;;;35.50;30.50;;;;;24.64;59.74;101833.59;2367798;28;47262;-87
2022/07/23 09:06:25;;;;;;;;;38.25;32.25;;;;;24.65;59.62;101824.53;2371406;28;45429;-87
2022/07/23 09:07:35;;;;;;;;;41.00;34.00;;;;;24.67;59.34;101831.50;2365319;29;46446;-86
2022/07/23 09:08:46;;;;;;;;;40.00;32.00;;;;;24.70;59.22;101831.28;2365619;29;45195;-87
2022/07/23 09:10:09;;;;;;;;;34.75;29.75;;;;;24.75;58.75;101827.38;2365359;29;46222;-86
2022/07/23 09:11:20;;;;;;;;;44.25;33.50;;;;;24.78;59.21;101832.53;2365944;28;45497;-87
2022/07/23 09:12:30;;;;;;;;;44.00;35.00;;;;;24.83;58.86;101836.59;2365209;29;46447;-87
2022/07/23 09:13:43;;;;;;;;;37.50;33.25;;;;;24.89;58.96;101829.84;2365668;29;45230;-87
2022/07/23 09:14:54;;;;;;;;;38.25;30.75;;;;;24.93;58.95;101835.84;2365262;29;45278;-86
2022/07/23 09:16:26;;;;;;;;;45.25;33.75;;;;;24.97;58.39;101842.69;2364690;29;45185;-89
2022/07/23 09:17:39;;;;;;;;;43.25;35.75;;;;;24.93;58.25;101825.97;2364368;29;46393;-88
2022/07/23 09:18:58;;;;;;;;;36.25;31.50;;;;;24.92;58.06;101835.00;2364846;29;44777;-86
2022/07/23 09:20:14;;;;;;;;;34.00;29.25;;;;;24.90;58.60;101830.72;2365248;29;46677;-87
2022/07/23 09:21:24;;;;;;;;;42.50;35.25;;;;;24.93;58.44;101831.34;2365418;28;45436;-87
2022/07/23 09:22:34;;;;;;;;;46.00;36.50;;;;;24.95;58.61;101826.69;2354901;29;47159;-86
2022/07/23 09:23:54;;;;;;;;;45.75;34.25;;;;;24.99;58.21;101826.47;2358605;29;44761;-87
2022/07/23 09:25:07;;;;;;;;;44.25;35.00;;;;;24.97;57.80;101831.09;2365435;28;45292;-84
2022/07/23 09:26:24;;;;;;;;;43.75;33.00;;;;;24.91;57.98;101819.84;2374861;28;45513;-86
2022/07/23 09:27:56;;;;;;;;;40.00;32.50;;;;;24.92;58.11;101821.56;2356118;29;48097;-86
2022/07/23 09:29:20;;;;;;;;;38.00;30.75;;;;;24.97;58.23;101818.50;2360505;29;45424;-85
2022/07/23 09:30:32;;;;;;;;;43.50;34.00;;;;;24.97;57.75;101823.03;2358029;29;47856;-86
2022/07/23 09:31:42;;;;;;;;;41.50;34.50;;;;;24.97;58.05;101831.94;2351871;29;45476;-86
2022/07/23 09:33:11;;;;;;;;;43.50;35.50;;;;;24.92;57.77;101818.88;2358028;29;45506;-86
2022/07/23 09:34:24;;;;;;;;;43.25;34.25;;;;;24.91;58.29;101814.47;2364509;28;45269;-86
2022/07/23 09:35:50;;;;;;;;;44.25;33.00;;;;;24.94;57.94;101821.44;2361825;29;46399;-86
2022/07/23 09:37:14;;;;;;;;;46.25;34.25;;;;;24.91;57.54;101809.09;2362901;28;44781;-87
2022/07/23 09:38:25;;;;;;;;;40.25;33.00;;;;;24.90;57.87;101820.81;2374233;28;45273;-86
2022/07/23 09:39:35;;;;;;;;;43.75;36.00;;;;;24.89;57.59;101835.22;2371606;28;45251;-86
2022/07/23 09:40:46;;;;;;;;;31.00;30.25;;;;;24.90;56.96;101819.97;2373123;28;48047;-86
2022/07/23 09:42:11;;;;;;;;;42.50;35.00;;;;;24.84;57.50;101827.53;2370744;28;45981;-86
2022/07/23 09:43:28;;;;;;;;;37.50;32.50;;;;;24.80;57.61;101826.06;2365081;29;46466;-86
2022/07/23 09:44:50;;;;;;;;;44.00;34.00;;;;;24.76;57.02;101826.41;2366210;28;45224;-86
2022/07/23 09:46:21;;;;;;;;;41.50;33.00;;;;;24.71;57.21;101822.25;2356079;29;45348;-86
2022/07/23 09:47:32;;;;;;;;;36.00;31.00;;;;;24.70;57.97;101825.03;2355501;29;45269;-87
2022/07/23 09:48:42;;;;;;;;;40.25;32.25;;;;;24.68;58.11;101818.94;2358045;29;45954;-87
2022/07/23 09:49:59;;;;;;;;;39.75;30.75;;;;;24.68;57.67;101818.94;2356964;29;45274;-87
2022/07/23 09:51:09;;;;;;;;;36.50;32.50;;;;;24.64;57.72;101815.63;2360868;29;45388;-87
2022/07/23 09:52:27;;;;;;;;;31.25;26.75;;;;;24.65;57.93;101825.41;2366247;29;45511;-87
2022/07/23 09:53:37;;;;;;;;;37.75;30.50;;;;;24.66;58.33;101824.44;2366971;28;46302;-86
2022/07/23 09:54:58;;;;;;;;;43.00;35.00;;;;;24.68;58.15;101822.47;2357169;29;44761;-86
2022/07/23 09:56:10;;;;;;;;;35.50;30.50;;;;;24.71;57.95;101827.63;2360404;29;47177;-87
2022/07/23 09:57:20;;;;;;;;;45.25;32.75;;;;;24.75;58.00;101824.69;2354358;29;45519;-86
2022/07/23 09:58:31;;;;;;;;;35.25;32.75;;;;;24.78;57.71;101827.16;2360105;29;45309;-87
2022/07/23 09:59:44;;;;;;;;;36.75;32.50;;;;;24.82;57.84;101828.63;2367210;29;44618;-86
2022/07/23 10:00:57;;;;;;;;;37.50;30.75;;;;;24.87;57.62;101825.56;2366766;29;46070;-86
2022/07/23 10:02:14;;;;;;;;;38.00;32.00;;;;;24.92;57.35;101826.94;2366772;29;45256;-87
2022/07/23 10:03:25;;;;;;;;;37.25;30.50;;;;;24.95;57.56;101831.22;2367095;28;46230;-86
2022/07/23 10:04:36;;;;;;;;;37.25;30.75;;;;;24.99;57.29;101832.69;2357406;29;45371;-86
2022/07/23 10:05:47;;;;;;;;;32.50;30.75;;;;;25.00;57.28;101830.88;2368730;28;46125;-87
2022/07/23 10:07:00;;;;;;;;;33.25;27.25;;;;;25.02;57.12;101829.78;2363590;29;46442;-87
2022/07/23 10:08:12;;;;;;;;;35.00;30.50;;;;;25.04;56.69;101819.75;2350615;29;48298;-86
2022/07/23 10:09:34;;;;;;;;;42.25;32.00;;;;;25.07;56.87;101826.75;2351615;29;44640;-86
2022/07/23 10:10:48;;;;;;;;;34.00;32.25;;;;;25.10;56.77;101823.81;2361344;29;46535;-86
2022/07/23 10:14:57;;;;;;;;;42.25;34.75;;;;;25.15;56.43;101824.31;2367017;29;45229;-86
2022/07/23 10:16:08;;;;;;;;;34.50;30.50;;;;;25.14;56.26;101825.28;2366677;29;45309;-86
2022/07/23 10:17:18;;;;;;;;;35.50;30.50;;;;;25.10;56.38;101818.44;2366972;29;45221;-87
2022/07/23 10:18:30;;;;;;;;;33.75;30.75;;;;;25.09;57.11;101829.31;2365962;29;47147;-86
2022/07/23 10:19:41;;;;;;;;;30.75;28.00;;;;;25.10;57.01;101821.13;2366573;29;45334;-86
2022/07/23 10:20:51;;;;;;;;;37.50;30.75;;;;;25.12;57.12;101812.94;2366935;29;46309;-87
2022/07/23 10:22:06;;;;;;;;;30.75;26.25;;;;;25.15;56.18;101824.31;2366969;29;45229;-86
2022/07/23 10:23:42;;;;;;;;;34.00;29.00;;;;;25.15;56.50;101818.94;2367262;28;45658;-86
2022/07/23 10:25:11;;;;;;;;;30.50;30.00;;;;;25.19;56.67;101818.69;2371703;28;45236;-86
2022/07/23 10:26:38;;;;;;;;;35.25;31.00;;;;;25.19;56.65;101819.53;2371098;28;45566;-87
2022/07/23 10:28:05;;;;;;;;;36.75;31.75;;;;;25.21;55.78;101820.25;2367000;29;44728;-87
2022/07/23 10:29:40;;;;;;;;;37.00;32.75;;;;;25.22;56.16;101818.44;2366825;29;46432;-86
2022/07/23 10:31:41;;;;;;;;;36.75;28.75;;;;;25.24;56.51;101824.53;2365939;29;44600;-86
2022/07/23 10:33:14;;;;;;;;;27.50;26.50;;;;;25.28;56.45;101817.97;2339127;29;47063;-84
2022/07/23 10:35:08;;;;;;;;;32.00;26.75;;;;;25.36;56.35;101818.19;2356882;29;44825;-86
2022/07/23 10:36:38;;;;;;;;;31.50;27.50;;;;;25.40;56.79;101825.06;2320547;29;46674;-88
2022/07/23 10:37:54;;;;;;;;;36.00;32.00;;;;;25.44;55.78;101819.41;2321020;29;45426;-86
2022/07/23 10:39:12;;;;;;;;;35.00;32.25;;;;;25.45;55.04;101821.13;2354535;29;46929;-88
2022/07/23 10:40:23;;;;;;;;;35.75;31.50;;;;;25.43;55.33;101813.19;2360859;29;45157;-88
2022/07/23 10:41:36;;;;;;;;;36.50;31.00;;;;;25.40;55.64;101821.50;2365674;28;46298;-88
2022/07/23 10:42:47;;;;;;;;;33.50;29.50;;;;;25.40;55.95;101821.50;2357097;29;45520;-89
2022/07/23 10:44:09;;;;;;;;;29.25;24.25;;;;;25.43;56.10;101823.09;2359898;29;45531;-88
2022/07/23 10:45:30;;;;;;;;;38.00;30.50;;;;;25.46;56.03;101825.56;2356853;29;45368;-88
2022/07/23 10:47:20;;;;;;;;;32.50;30.50;;;;;25.49;56.41;101825.28;2359744;29;45867;-89
2022/07/23 10:48:30;;;;;;;;;32.50;30.50;;;;;25.48;55.81;101829.81;2356819;29;45121;-91
2022/07/23 10:49:41;;;;;;;;;38.50;31.50;;;;;25.52;55.96;101825.03;2359174;29;47347;-89
2022/07/23 10:51:11;;;;;;;;;32.00;30.50;;;;;25.55;55.90;101829.31;2366120;29;45331;-88
2022/07/23 10:52:26;;;;;;;;;26.00;24.75;;;;;25.57;56.00;101830.91;2361835;28;45405;-89
2022/07/23 10:53:51;;;;;;;;;33.50;28.00;;;;;25.61;56.13;101834.19;2355350;29;45445;-87
2022/07/23 10:55:02;;;;;;;;;31.00;28.25;;;;;25.65;55.63;101830.31;2364204;28;46427;-88
2022/07/23 10:56:14;;;;;;;;;26.50;25.50;;;;;25.67;55.70;101831.03;2366034;29;45437;-88
2022/07/23 10:57:25;;;;;;;;;32.50;26.00;;;;;25.72;55.41;101834.25;2360667;28;46385;-88
2022/07/23 10:58:48;;;;;;;;;33.00;29.00;;;;;25.76;55.67;101824.06;2375195;28;44763;-88
2022/07/23 11:00:14;;;;;;;;;30.75;24.25;;;;;25.76;54.99;101829.44;2366162;29;46530;-87
2022/07/23 11:01:38;;;;;;;;;29.25;26.25;;;;;25.77;55.55;101827.63;2365286;29;45518;-90
2022/07/23 11:02:53;;;;;;;;;36.25;28.00;;;;;25.80;55.47;101833.63;2357601;29;45512;-86
2022/07/23 11:04:07;;;;;;;;;28.25;25.50;;;;;25.82;55.34;101831.66;2355013;29;44603;-86
2022/07/23 11:05:20;;;;;;;;;31.25;28.75;;;;;25.87;54.86;101835.78;2360020;29;45368;-86
2022/07/23 11:06:48;;;;;;;;;27.75;25.25;;;;;25.88;54.49;101834.81;2355596;29;45305;-86
2022/07/23 11:08:05;;;;;;;;;30.50;27.50;;;;;25.90;54.81;101835.56;2367171;28;45515;-87
2022/07/23 11:09:29;;;;;;;;;30.75;26.25;;;;;25.92;54.02;101837.13;2363380;29;45301;-86
2022/07/23 11:10:41;;;;;;;;;33.00;27.25;;;;;25.91;54.29;101843.50;2358301;28;47328;-87
2022/07/23 11:12:30;;;;;;;;;28.50;24.25;;;;;25.91;54.69;101850.72;2374687;28;45240;-87
2022/07/23 11:13:47;;;;;;;;;28.25;26.25;;;;;25.90;54.63;101849.00;2339014;29;47499;-87
2022/07/23 11:15:03;;;;;;;;;31.75;28.25;;;;;25.88;54.89;101854.50;2340593;29;47031;-87
2022/07/23 11:16:16;;;;;;;;;34.25;30.25;;;;;25.85;54.51;101849.41;2337530;29;47531;-87
2022/07/23 11:17:27;;;;;;;;;24.50;23.75;;;;;25.85;55.14;101857.47;2339567;29;44873;-86
2022/07/23 11:18:40;;;;;;;;;32.50;30.75;;;;;25.85;54.96;101860.16;2343514;29;45555;-87
2022/07/23 11:20:09;;;;;;;;;33.25;30.00;;;;;25.84;54.73;101861.13;2347050;29;45446;-86
2022/07/23 11:21:23;;;;;;;;;34.50;31.50;;;;;25.82;54.73;101866.66;2367498;28;47312;-86
2022/07/23 11:22:37;;;;;;;;;33.00;29.00;;;;;25.81;55.02;101864.06;2356959;29;44697;-86
2022/07/23 11:23:57;;;;;;;;;28.00;25.25;;;;;25.85;54.85;101873.63;2359827;29;45447;-87
2022/07/23 11:25:07;;;;;;;;;30.25;27.50;;;;;25.87;55.35;101865.41;2355335;29;45436;-86
2022/07/23 11:26:36;;;;;;;;;31.50;26.50;;;;;25.92;54.96;101863.19;2359140;29;46139;-86
2022/07/23 11:27:48;;;;;;;;;30.50;25.00;;;;;25.93;54.73;101862.19;2373305;28;45513;-85
2022/07/23 11:29:27;;;;;;;;;28.50;25.50;;;;;25.98;55.18;101873.47;2362529;28;46368;-86
2022/07/23 11:30:41;;;;;;;;;27.25;24.50;;;;;25.98;54.53;101860.00;2362418;29;45483;-86
2022/07/23 11:31:56;;;;;;;;;25.75;25.00;;;;;25.98;54.54;101867.25;2364802;29;48096;-87
2022/07/23 11:33:07;;;;;;;;;30.75;26.75;;;;;25.99;54.71;101863.56;2365375;29;45248;-87
2022/07/23 11:34:29;;;;;;;;;27.25;24.75;;;;;25.99;54.71;101864.41;2363280;29;45463;-86
2022/07/23 11:35:42;;;;;;;;;23.25;18.50;;;;;25.98;54.12;101860.00;2364968;29;45402;-87
2022/07/23 11:36:52;;;;;;;;;28.25;26.00;;;;;26.02;54.81;101863.31;2355756;29;46626;-87
2022/07/23 11:38:17;;;;;;;;;33.25;27.00;;;;;25.99;53.57;101859.03;2358743;29;45460;-88
2022/07/23 11:39:29;;;;;;;;;27.25;25.50;;;;;25.94;54.60;101861.25;2364979;29;48353;-87